createdAt,value
2023-02-27T00:02:26.567Z,13.73
2023-02-27T00:05:00.894Z,13.70
2023-02-27T00:07:34.554Z,13.68
2023-02-27T00:10:09.788Z,13.67
2023-02-27T00:12:53.013Z,13.65
2023-02-27T00:15:26.927Z,13.66
2023-02-27T00:18:02.625Z,13.65
2023-02-27T00:20:38.250Z,13.60
2023-02-27T00:23:11.743Z,13.61
2023-02-27T00:25:45.273Z,13.60
2023-02-27T00:28:18.365Z,13.61
2023-02-27T00:30:51.832Z,13.54
2023-02-27T00:33:26.818Z,13.50
2023-02-27T00:36:02.701Z,13.48
2023-02-27T00:38:36.544Z,13.40
2023-02-27T00:41:09.769Z,13.46
2023-02-27T00:43:44.020Z,13.40
2023-02-27T00:46:17.246Z,13.40
2023-02-27T00:48:52.152Z,13.31
2023-02-27T00:51:25.873Z,13.37
2023-02-27T00:53:59.138Z,13.32
2023-02-27T00:56:32.932Z,13.27
2023-02-27T00:59:06.281Z,13.21
2023-02-27T01:01:40.101Z,13.24
2023-02-27T01:04:14.616Z,13.27
2023-02-27T01:06:48.788Z,13.27
2023-02-27T01:09:22.404Z,13.28
2023-02-27T01:12:00.508Z,13.20
2023-02-27T01:14:34.090Z,13.27
2023-02-27T01:17:07.832Z,13.23
2023-02-27T01:19:42.875Z,13.17
2023-02-27T01:22:17.428Z,13.29
2023-02-27T01:24:50.639Z,13.30
2023-02-27T01:27:23.998Z,13.26
2023-02-27T01:29:57.393Z,13.27
2023-02-27T01:32:30.745Z,13.26
2023-02-27T01:35:06.445Z,13.14
2023-02-27T01:37:40.304Z,13.17
2023-02-27T01:40:14.861Z,13.16
2023-02-27T01:42:48.157Z,13.16
2023-02-27T01:45:30.877Z,13.17
2023-02-27T01:48:11.951Z,13.17
2023-02-27T01:50:51.897Z,13.22
2023-02-27T01:53:27.207Z,13.20
2023-02-27T01:56:06.293Z,13.19
2023-02-27T01:58:40.759Z,13.16
2023-02-27T02:01:14.044Z,13.21
2023-02-27T02:03:50.204Z,13.27
2023-02-27T02:06:25.140Z,13.24
2023-02-27T02:09:00.987Z,13.29
2023-02-27T02:11:34.767Z,13.24
2023-02-27T02:14:11.017Z,13.23
2023-02-27T02:16:56.253Z,13.18
2023-02-27T02:19:54.489Z,13.17
2023-02-27T02:23:06.951Z,13.24
2023-02-27T02:26:11.981Z,13.23
2023-02-27T02:29:12.947Z,13.15
2023-02-27T02:32:27.597Z,13.16
2023-02-27T02:35:45.806Z,13.23
2023-02-27T02:39:06.367Z,13.19
2023-02-27T02:41:54.557Z,13.21
2023-02-27T02:44:41.238Z,13.21
2023-02-27T02:47:23.704Z,13.26
2023-02-27T02:50:02.059Z,13.25
2023-02-27T02:52:45.299Z,13.26
2023-02-27T02:55:25.957Z,13.27
2023-02-27T02:58:05.567Z,13.25
2023-02-27T03:00:45.005Z,13.26
2023-02-27T03:03:26.345Z,13.27
2023-02-27T03:06:04.971Z,13.22
2023-02-27T03:08:44.904Z,13.28
2023-02-27T03:11:21.681Z,13.31
2023-02-27T03:14:00.112Z,13.26
2023-02-27T03:16:41.175Z,13.21
2023-02-27T03:19:19.357Z,13.25
2023-02-27T03:21:56.753Z,13.19
2023-02-27T03:24:34.893Z,13.19
2023-02-27T03:27:11.043Z,13.27
2023-02-27T03:29:50.806Z,13.25
2023-02-27T03:32:30.268Z,13.30
2023-02-27T03:35:05.127Z,13.29
2023-02-27T03:37:52.564Z,13.30
2023-02-27T03:40:30.485Z,13.35
2023-02-27T03:43:17.965Z,13.26
2023-02-27T03:45:58.090Z,13.27
2023-02-27T03:48:32.282Z,12.81
2023-02-27T03:51:06.578Z,13.23
2023-02-27T03:53:46.080Z,13.22
2023-02-27T03:56:25.264Z,13.23
2023-02-27T03:59:00.205Z,13.23
2023-02-27T04:01:33.761Z,13.21
2023-02-27T04:04:11.343Z,13.21
2023-02-27T04:07:07.677Z,13.17
2023-02-27T04:09:57.820Z,13.20
2023-02-27T04:12:57.864Z,13.23
2023-02-27T04:15:45.628Z,13.10
2023-02-27T04:18:31.562Z,13.21
2023-02-27T04:21:11.205Z,13.11
2023-02-27T04:23:55.888Z,13.16
2023-02-27T04:26:33.533Z,13.22
2023-02-27T04:29:12.826Z,13.20
2023-02-27T04:31:54.328Z,13.18
2023-02-27T04:34:34.481Z,13.11
2023-02-27T04:37:11.705Z,13.14
2023-02-27T04:39:51.955Z,12.99
2023-02-27T04:42:30.294Z,13.15
2023-02-27T04:45:07.342Z,13.13
2023-02-27T04:47:47.761Z,13.04
2023-02-27T04:50:36.372Z,13.05
2023-02-27T04:53:15.565Z,13.03
2023-02-27T04:55:51.980Z,13.05
2023-02-27T04:58:29.292Z,13.07
2023-02-27T05:01:06.437Z,13.09
2023-02-27T05:03:44.677Z,11.89
2023-02-27T05:06:23.106Z,13.10
2023-02-27T05:09:04.741Z,13.07
2023-02-27T05:11:45.486Z,13.05
2023-02-27T05:14:26.288Z,13.04
2023-02-27T05:17:08.098Z,13.09
2023-02-27T05:19:44.816Z,13.10
2023-02-27T05:22:29.442Z,12.95
2023-02-27T05:25:09.204Z,13.04
2023-02-27T05:27:47.326Z,12.99
2023-02-27T05:30:26.377Z,13.00
2023-02-27T05:33:07.026Z,13.04
2023-02-27T05:35:48.380Z,13.01
2023-02-27T05:38:26.851Z,13.06
2023-02-27T05:41:05.994Z,12.98
2023-02-27T05:43:43.977Z,13.10
2023-02-27T05:46:21.059Z,13.14
2023-02-27T05:48:58.239Z,13.15
2023-02-27T05:51:36.910Z,13.16
2023-02-27T05:54:17.681Z,13.19
2023-02-27T05:56:54.593Z,13.23
2023-02-27T05:59:33.739Z,13.24
2023-02-27T06:02:08.118Z,13.30
2023-02-27T06:04:41.929Z,13.32
2023-02-27T06:07:16.806Z,13.34
2023-02-27T06:09:51.207Z,13.35
2023-02-27T06:12:25.840Z,12.95
2023-02-27T06:14:59.440Z,13.44
2023-02-27T06:17:33.437Z,13.15
2023-02-27T06:20:08.295Z,12.98
2023-02-27T06:22:43.371Z,12.91
2023-02-27T06:25:16.800Z,12.82
2023-02-27T06:27:50.340Z,12.83
2023-02-27T06:30:24.032Z,12.80
2023-02-27T06:32:57.827Z,12.77
2023-02-27T06:35:31.258Z,12.73
2023-02-27T06:38:06.088Z,12.69
2023-02-27T06:40:39.269Z,12.63
2023-02-27T06:43:12.492Z,12.61
2023-02-27T06:45:45.882Z,12.65
2023-02-27T06:48:19.429Z,12.64
2023-02-27T06:50:53.772Z,12.66
2023-02-27T06:53:28.410Z,12.72
2023-02-27T06:56:01.660Z,12.74
2023-02-27T06:58:35.340Z,12.71
2023-02-27T07:01:08.988Z,12.76
2023-02-27T07:03:42.391Z,12.79
2023-02-27T07:06:15.898Z,12.83
2023-02-27T07:09:02.244Z,12.85
2023-02-27T07:11:40.469Z,12.84
2023-02-27T07:14:16.670Z,12.83
2023-02-27T07:16:55.045Z,12.80
2023-02-27T07:19:28.361Z,12.86
2023-02-27T07:22:01.643Z,12.86
2023-02-27T07:24:36.624Z,12.89
2023-02-27T07:27:10.062Z,12.92
2023-02-27T07:29:43.516Z,12.92
2023-02-27T07:32:16.845Z,12.99
2023-02-27T07:34:50.305Z,13.03
2023-02-27T07:37:23.555Z,13.04
2023-02-27T07:39:58.295Z,13.12
2023-02-27T07:42:32.383Z,12.78
2023-02-27T07:45:06.729Z,13.21
2023-02-27T07:47:40.297Z,13.36
2023-02-27T07:50:15.021Z,13.38
2023-02-27T07:52:48.216Z,13.45
2023-02-27T07:55:23.112Z,13.65
2023-02-27T07:57:56.737Z,13.80
2023-02-27T08:00:30.448Z,13.86
2023-02-27T08:03:03.735Z,13.93
2023-02-27T08:05:37.583Z,13.96
2023-02-27T08:08:11.186Z,13.98
2023-02-27T08:10:45.985Z,14.04
2023-02-27T08:13:30.120Z,14.13
2023-02-27T08:16:10.754Z,14.21
2023-02-27T08:18:44.397Z,14.21
2023-02-27T08:21:17.753Z,14.27
2023-02-27T08:23:51.141Z,14.26
2023-02-27T08:26:26.552Z,14.35
2023-02-27T08:29:00.272Z,14.42
2023-02-27T08:31:33.638Z,14.43
2023-02-27T08:34:10.585Z,14.45
2023-02-27T08:36:44.451Z,14.56
2023-02-27T08:39:18.585Z,14.76
2023-02-27T08:41:53.931Z,14.75
2023-02-27T08:44:27.358Z,14.68
2023-02-27T08:47:00.624Z,14.85
2023-02-27T08:49:33.960Z,14.91
2023-02-27T08:52:09.433Z,14.97
2023-02-27T08:54:43.075Z,15.22
2023-02-27T08:57:18.093Z,15.31
2023-02-27T08:59:51.316Z,15.64
2023-02-27T09:02:26.396Z,15.42
2023-02-27T09:05:00.198Z,15.34
2023-02-27T09:07:34.516Z,15.36
2023-02-27T09:10:09.106Z,15.37
2023-02-27T09:12:44.190Z,15.40
2023-02-27T09:15:18.171Z,15.43
2023-02-27T09:17:51.884Z,15.62
2023-02-27T09:20:25.621Z,15.59
2023-02-27T09:22:59.781Z,15.66
2023-02-27T09:25:33.632Z,15.70
2023-02-27T09:28:08.488Z,15.65
2023-02-27T09:30:41.727Z,15.75
2023-02-27T09:33:15.237Z,15.82
2023-02-27T09:35:48.647Z,15.95
2023-02-27T09:38:22.139Z,16.05
2023-02-27T09:40:59.527Z,15.99
2023-02-27T09:43:41.607Z,16.14
2023-02-27T09:46:19.955Z,16.14
2023-02-27T09:48:55.973Z,16.19
2023-02-27T09:51:31.097Z,16.12
2023-02-27T09:54:06.341Z,16.30
2023-02-27T09:56:47.063Z,16.23
2023-02-27T09:59:33.044Z,16.29
2023-02-27T10:02:22.199Z,16.16
2023-02-27T10:05:02.869Z,16.29
2023-02-27T10:07:42.816Z,16.30
2023-02-27T10:10:26.154Z,16.11
2023-02-27T10:13:17.981Z,16.24
2023-02-27T10:15:54.703Z,16.19
2023-02-27T10:18:32.344Z,16.16
2023-02-27T10:21:11.953Z,16.21
2023-02-27T10:23:56.509Z,16.31
2023-02-27T10:26:34.253Z,16.34
2023-02-27T10:29:19.051Z,16.35
2023-02-27T10:32:00.694Z,16.41
2023-02-27T10:34:35.751Z,16.33
2023-02-27T10:37:14.512Z,16.27
2023-02-27T10:39:51.064Z,16.36
2023-02-27T10:42:26.910Z,16.29
2023-02-27T10:45:01.256Z,16.31
2023-02-27T10:47:38.899Z,16.34
2023-02-27T10:50:24.403Z,16.38
2023-02-27T10:52:59.772Z,16.32
2023-02-27T10:55:35.951Z,16.25
2023-02-27T10:58:09.674Z,16.67
2023-02-27T11:00:55.299Z,16.88
2023-02-27T11:03:35.066Z,17.14
2023-02-27T11:06:13.419Z,16.82
2023-02-27T11:09:06.648Z,16.79
2023-02-27T11:11:41.264Z,16.80
2023-02-27T11:14:27.996Z,16.84
2023-02-27T11:17:03.800Z,17.05
2023-02-27T11:19:40.337Z,16.96
2023-02-27T11:22:18.646Z,16.84
2023-02-27T11:24:52.755Z,17.10
2023-02-27T11:27:28.972Z,16.99
2023-02-27T11:30:06.296Z,17.06
2023-02-27T11:32:44.433Z,17.07
2023-02-27T11:35:27.188Z,16.89
2023-02-27T11:38:02.558Z,16.78
2023-02-27T11:40:42.041Z,16.94
2023-02-27T11:43:20.081Z,17.07
2023-02-27T11:46:12.747Z,17.27
2023-02-27T11:48:52.258Z,17.15
2023-02-27T11:51:39.120Z,17.02
2023-02-27T11:54:22.923Z,16.93
2023-02-27T11:56:59.317Z,16.57
2023-02-27T11:59:43.309Z,16.90
2023-02-27T12:02:23.710Z,17.03
2023-02-27T12:05:00.836Z,16.91
2023-02-27T12:07:40.791Z,16.96
2023-02-27T12:10:19.734Z,17.00
2023-02-27T12:12:59.775Z,17.00
2023-02-27T12:15:44.161Z,17.00
2023-02-27T12:18:24.231Z,16.82
2023-02-27T12:21:02.569Z,16.99
2023-02-27T12:23:42.841Z,17.08
2023-02-27T12:26:25.215Z,17.01
2023-02-27T12:29:01.403Z,16.64
2023-02-27T12:31:46.190Z,16.82
2023-02-27T12:34:28.487Z,16.83
2023-02-27T12:37:04.849Z,16.83
2023-02-27T12:39:41.225Z,16.83
2023-02-27T12:42:46.576Z,17.01
2023-02-27T12:45:52.092Z,17.01
2023-02-27T12:48:55.670Z,17.12
2023-02-27T12:51:44.110Z,16.97
2023-02-27T12:54:27.860Z,17.23
2023-02-27T12:57:14.148Z,17.31
2023-02-27T13:00:07.033Z,17.31
2023-02-27T13:02:51.491Z,17.11
2023-02-27T13:05:43.131Z,17.48
2023-02-27T13:08:38.215Z,17.18
2023-02-27T13:11:24.917Z,17.08
2023-02-27T13:14:03.061Z,17.03
2023-02-27T13:16:42.366Z,16.93
2023-02-27T13:19:20.887Z,16.85
2023-02-27T13:21:57.132Z,16.36
2023-02-27T13:24:32.400Z,16.87
2023-02-27T13:27:14.811Z,16.53
2023-02-27T13:30:02.314Z,17.14
2023-02-27T13:32:44.449Z,17.09
2023-02-27T13:35:25.144Z,17.09
2023-02-27T13:38:01.683Z,16.99
2023-02-27T13:40:38.697Z,17.12
2023-02-27T13:43:46.420Z,17.08
2023-02-27T13:46:27.643Z,17.00
2023-02-27T13:49:29.581Z,17.00
2023-02-27T13:52:04.132Z,17.00
2023-02-27T13:54:41.908Z,16.80
2023-02-27T13:57:27.125Z,16.75
2023-02-27T14:00:05.216Z,16.70
2023-02-27T14:02:59.462Z,16.73
2023-02-27T14:05:37.694Z,16.73
2023-02-27T14:08:17.309Z,16.78
2023-02-27T14:10:59.924Z,16.68
2023-02-27T14:14:00.719Z,16.58
2023-02-27T14:17:00.077Z,16.67
2023-02-27T14:19:59.618Z,16.65
2023-02-27T14:22:55.887Z,16.66
2023-02-27T14:25:34.507Z,16.59
2023-02-27T14:28:21.764Z,16.64
2023-02-27T14:30:59.564Z,16.70
2023-02-27T14:33:41.573Z,16.62
2023-02-27T14:36:21.413Z,16.06
2023-02-27T14:39:01.954Z,16.49
2023-02-27T14:41:45.017Z,16.42
2023-02-27T14:44:23.726Z,16.33
2023-02-27T14:46:58.528Z,16.29
2023-02-27T14:49:33.947Z,16.24
2023-02-27T14:52:20.786Z,16.24
2023-02-27T14:54:54.800Z,16.08
2023-02-27T14:57:28.225Z,16.16
2023-02-27T15:00:01.925Z,16.06
2023-02-27T15:02:38.246Z,16.11
2023-02-27T15:05:21.909Z,16.07
2023-02-27T15:07:56.844Z,16.09
2023-02-27T15:10:33.245Z,16.09
2023-02-27T15:13:08.234Z,16.02
2023-02-27T15:15:42.232Z,15.97
2023-02-27T15:18:16.404Z,16.00
2023-02-27T15:20:57.024Z,15.97
2023-02-27T15:23:31.661Z,15.96
2023-02-27T15:26:05.721Z,15.92
2023-02-27T15:28:40.218Z,15.88
2023-02-27T15:31:20.770Z,15.79
2023-02-27T15:33:54.612Z,15.76
2023-02-27T15:36:30.889Z,15.77
2023-02-27T15:39:17.157Z,15.80
2023-02-27T15:41:53.602Z,15.75
2023-02-27T15:44:30.029Z,15.70
2023-02-27T15:47:03.674Z,15.74
2023-02-27T15:49:38.392Z,15.53
2023-02-27T15:52:17.846Z,15.60
2023-02-27T15:54:55.495Z,15.60
2023-02-27T15:57:30.674Z,15.57
2023-02-27T16:00:06.996Z,15.56
2023-02-27T16:02:44.384Z,15.52
2023-02-27T16:05:20.425Z,15.54
2023-02-27T16:07:55.022Z,15.08
2023-02-27T16:10:35.540Z,15.42
2023-02-27T16:13:23.209Z,15.46
2023-02-27T16:16:02.613Z,15.44
2023-02-27T16:18:48.183Z,15.26
2023-02-27T16:21:23.209Z,15.32
2023-02-27T16:24:16.558Z,15.34
2023-02-27T16:26:54.265Z,15.25
2023-02-27T16:29:33.667Z,15.20
2023-02-27T16:32:07.455Z,15.23
2023-02-27T16:34:45.844Z,15.21
2023-02-27T16:37:22.084Z,15.13
2023-02-27T16:39:55.395Z,15.15
2023-02-27T16:42:30.050Z,15.11
2023-02-27T16:45:03.764Z,15.05
2023-02-27T16:47:37.286Z,15.07
2023-02-27T16:50:16.495Z,15.05
2023-02-27T16:52:50.110Z,15.01
2023-02-27T16:55:23.505Z,14.98
2023-02-27T16:57:58.502Z,14.92
2023-02-27T17:00:34.118Z,14.89
2023-02-27T17:03:07.455Z,14.87
2023-02-27T17:05:41.348Z,14.86
2023-02-27T17:08:14.366Z,14.81
2023-02-27T17:10:47.991Z,14.83
2023-02-27T17:13:24.056Z,14.81
2023-02-27T17:15:58.002Z,14.74
2023-02-27T17:18:31.420Z,14.73
2023-02-27T17:21:05.841Z,14.70
2023-02-27T17:23:39.399Z,14.66
2023-02-27T17:26:12.621Z,14.66
2023-02-27T17:28:47.729Z,14.69
2023-02-27T17:31:23.150Z,14.64
2023-02-27T17:33:57.043Z,14.53
2023-02-27T17:36:30.756Z,14.59
2023-02-27T17:39:04.167Z,14.68
2023-02-27T17:41:37.587Z,14.55
2023-02-27T17:44:12.773Z,14.63
2023-02-27T17:46:47.586Z,14.60
2023-02-27T17:49:20.846Z,14.57
2023-02-27T17:51:54.110Z,14.51
2023-02-27T17:54:27.875Z,14.51
2023-02-27T17:57:01.637Z,14.55
2023-02-27T17:59:37.313Z,14.54
2023-02-27T18:02:12.057Z,14.51
2023-02-27T18:04:45.353Z,14.47
2023-02-27T18:07:18.574Z,14.49
2023-02-27T18:09:51.760Z,14.43
2023-02-27T18:12:25.491Z,14.45
2023-02-27T18:15:00.311Z,14.41
2023-02-27T18:17:34.496Z,14.40
2023-02-27T18:20:10.198Z,14.47
2023-02-27T18:22:43.657Z,14.31
2023-02-27T18:25:16.920Z,14.32
2023-02-27T18:27:50.652Z,14.28
2023-02-27T18:30:25.778Z,14.30
2023-02-27T18:33:00.206Z,14.30
2023-02-27T18:35:33.857Z,14.16
2023-02-27T18:38:07.172Z,14.25
2023-02-27T18:40:40.423Z,14.19
2023-02-27T18:43:14.691Z,14.17
2023-02-27T18:45:49.685Z,14.13
2023-02-27T18:48:23.256Z,14.04
2023-02-27T18:51:01.229Z,14.06
2023-02-27T18:53:36.426Z,14.07
2023-02-27T18:56:11.839Z,14.13
2023-02-27T18:58:45.285Z,14.06
2023-02-27T19:01:26.440Z,14.00
2023-02-27T19:04:03.815Z,13.86
2023-02-27T19:06:40.960Z,13.96
2023-02-27T19:09:17.119Z,13.84
2023-02-27T19:11:51.495Z,13.93
2023-02-27T19:14:25.937Z,13.96
2023-02-27T19:17:01.676Z,13.97
2023-02-27T19:19:36.414Z,13.94
2023-02-27T19:22:10.033Z,13.89
2023-02-27T19:24:44.485Z,13.89
2023-02-27T19:27:18.292Z,13.76
2023-02-27T19:29:51.884Z,13.81
2023-02-27T19:32:26.940Z,13.85
2023-02-27T19:35:00.248Z,13.85
2023-02-27T19:37:34.029Z,13.77
2023-02-27T19:40:08.527Z,13.79
2023-02-27T19:42:42.289Z,13.80
2023-02-27T19:45:15.728Z,13.76
2023-02-27T19:47:50.830Z,13.74
2023-02-27T19:50:24.315Z,13.83
2023-02-27T19:52:57.783Z,13.95
2023-02-27T19:55:31.100Z,13.86
2023-02-27T19:58:05.289Z,13.73
2023-02-27T20:00:40.723Z,13.79
2023-02-27T20:03:15.591Z,13.77
2023-02-27T20:05:49.145Z,13.71
2023-02-27T20:08:23.236Z,13.73
2023-02-27T20:10:57.335Z,13.64
2023-02-27T20:13:31.819Z,13.68
2023-02-27T20:16:08.504Z,13.48
2023-02-27T20:18:43.911Z,13.71
2023-02-27T20:21:20.348Z,13.75
2023-02-27T20:23:54.040Z,13.69
2023-02-27T20:26:30.796Z,13.71
2023-02-27T20:29:06.814Z,13.67
2023-02-27T20:31:41.801Z,13.66
2023-02-27T20:34:21.942Z,13.48
2023-02-27T20:36:56.430Z,12.05
2023-02-27T20:39:30.448Z,13.56
2023-02-27T20:42:04.514Z,13.56
2023-02-27T20:44:38.039Z,13.55
2023-02-27T20:47:11.468Z,13.58
2023-02-27T20:49:46.348Z,13.54
2023-02-27T20:52:19.662Z,13.48
2023-02-27T20:54:53.588Z,13.50
2023-02-27T20:57:27.033Z,13.49
2023-02-27T21:00:00.284Z,13.50
2023-02-27T21:02:33.619Z,13.48
2023-02-27T21:05:09.007Z,13.48
2023-02-27T21:07:42.175Z,13.41
2023-02-27T21:10:15.738Z,13.40
2023-02-27T21:12:53.301Z,13.37
2023-02-27T21:15:27.192Z,13.35
2023-02-27T21:18:00.833Z,13.38
2023-02-27T21:20:35.636Z,13.36
2023-02-27T21:23:08.897Z,13.30
2023-02-27T21:25:43.797Z,13.00
2023-02-27T21:28:17.364Z,13.01
2023-02-27T21:30:54.320Z,12.94
2023-02-27T21:33:28.165Z,12.97
2023-02-27T21:36:02.974Z,12.81
2023-02-27T21:38:36.615Z,12.98
2023-02-27T21:41:12.655Z,12.95
2023-02-27T21:43:46.522Z,12.90
2023-02-27T21:46:20.842Z,12.86
2023-02-27T21:48:54.088Z,12.81
2023-02-27T21:51:39.903Z,12.83
2023-02-27T21:54:14.771Z,12.79
2023-02-27T21:56:49.380Z,12.79
2023-02-27T21:59:22.624Z,12.77
2023-02-27T22:01:56.288Z,12.78
2023-02-27T22:04:29.631Z,12.80
2023-02-27T22:07:04.447Z,12.49
2023-02-27T22:09:37.974Z,12.78
2023-02-27T22:12:11.628Z,12.70
2023-02-27T22:14:45.285Z,12.77
2023-02-27T22:17:18.621Z,12.74
2023-02-27T22:19:52.900Z,12.67
2023-02-27T22:22:27.752Z,12.61
2023-02-27T22:25:01.306Z,12.44
2023-02-27T22:27:34.801Z,12.49
2023-02-27T22:30:09.308Z,12.42
2023-02-27T22:32:42.588Z,12.45
2023-02-27T22:35:16.462Z,12.47
2023-02-27T22:37:51.541Z,12.51
2023-02-27T22:40:24.915Z,12.37
2023-02-27T22:42:58.473Z,12.30
2023-02-27T22:45:31.928Z,12.32
2023-02-27T22:48:05.616Z,12.32
2023-02-27T22:50:38.972Z,12.30
2023-02-27T22:53:14.043Z,12.19
2023-02-27T22:55:54.308Z,12.29
2023-02-27T22:58:29.644Z,12.19
2023-02-27T23:01:02.941Z,12.21
2023-02-27T23:03:36.224Z,12.23
2023-02-27T23:06:12.148Z,12.17
2023-02-27T23:08:47.365Z,12.04
2023-02-27T23:11:22.076Z,12.08
2023-02-27T23:13:56.640Z,12.06
2023-02-27T23:16:30.884Z,12.11
2023-02-27T23:19:05.540Z,12.17
2023-02-27T23:21:40.151Z,12.13
2023-02-27T23:24:17.767Z,12.09
2023-02-27T23:26:53.041Z,12.11
2023-02-27T23:29:26.328Z,12.05
2023-02-27T23:31:59.776Z,12.01
2023-02-27T23:34:47.474Z,11.87
2023-02-27T23:37:23.103Z,11.79
2023-02-27T23:39:57.913Z,11.84
2023-02-27T23:42:48.618Z,11.74
2023-02-27T23:45:25.001Z,11.75
2023-02-27T23:48:00.279Z,11.72
2023-02-27T23:50:35.720Z,11.72
2023-02-27T23:53:10.419Z,11.72
2023-02-27T23:55:45.375Z,11.80
2023-02-27T23:58:18.927Z,11.74
